Main page
Satellite images 10-day forecastsClimateMarine weather Cyclones Lightning AirportsFAQ Newsletter About
Weather : Europe Africa North America South America Asia Australia-Oceania Others
Languages Contact

Alpine, Texas, United States

Alpine-Casparis Municipal Airport

latitude: 30-23-03N, longitude: 103-41-00W, elevation: 1376 m


METAR: KE38 280115Z AUTO 15014G21KT 10SM CLR 27/15 A3004 RMK AO2 LTG DSNT N AND NE T02650154
TAF: missing

Time: 20:40 (01:40 UTC)

Current weather observation

The report was made 25 minutes ago, at 01:15 UTC
Wind 14 kt from the South/Southeast with gusts up to 21 kt
Temperature 27°C
Humidity 48%
Pressure 1017 hPa
Visibility: 16.1 km
Clear sky

Change units
The information on this site is subject to a disclaimer
Weather : Europe Africa North America South America Asia Australia-Oceania Others
Satellite images 10-day forecastsClimateMarine weather Cyclones Lightning AirportsFAQ Languages Contact Newsletter About